createdAt,value
2023-01-17T00:01:55.460Z,2.50
2023-01-17T00:04:40.676Z,2.40
2023-01-17T00:07:29.669Z,2.17
2023-01-17T00:09:58.600Z,2.10
2023-01-17T00:12:27.159Z,2.10
2023-01-17T00:14:56.320Z,2.20
2023-01-17T00:17:24.415Z,3.13
2023-01-17T00:20:09.855Z,2.77
2023-01-17T00:22:55.683Z,3.60
2023-01-17T00:25:47.576Z,3.40
2023-01-17T00:28:14.584Z,2.70
2023-01-17T00:30:41.183Z,3.03
2023-01-17T00:33:07.760Z,3.37
2023-01-17T00:35:34.979Z,3.13
2023-01-17T00:38:12.474Z,3.50
2023-01-17T00:40:40.922Z,4.20
2023-01-17T00:43:27.059Z,8.33
2023-01-17T00:46:12.761Z,3.80
2023-01-17T00:48:58.168Z,3.23
2023-01-17T00:51:44.607Z,4.47
2023-01-17T00:54:29.770Z,3.77
2023-01-17T00:57:15.133Z,3.33
2023-01-17T01:00:00.389Z,3.03
2023-01-17T01:02:46.140Z,3.00
2023-01-17T01:05:32.872Z,3.03
2023-01-17T01:08:19.174Z,2.60
2023-01-17T01:11:05.931Z,2.63
2023-01-17T01:13:52.263Z,2.83
2023-01-17T01:16:38.018Z,2.90
2023-01-17T01:19:24.555Z,2.77
2023-01-17T01:22:09.674Z,2.67
2023-01-17T01:24:55.053Z,3.33
2023-01-17T01:27:40.405Z,3.17
2023-01-17T01:30:26.253Z,2.77
2023-01-17T01:33:11.615Z,3.00
2023-01-17T01:35:38.246Z,3.10
2023-01-17T01:38:04.813Z,3.03
2023-01-17T01:40:31.482Z,2.63
2023-01-17T01:42:59.965Z,2.70
2023-01-17T01:45:29.821Z,2.30
2023-01-17T01:48:04.231Z,3.03
2023-01-17T01:50:33.821Z,3.00
2023-01-17T01:53:03.427Z,3.33
2023-01-17T01:55:36.483Z,2.60
2023-01-17T01:58:10.665Z,2.70
2023-01-17T02:00:40.823Z,2.73
2023-01-17T02:03:13.084Z,2.87
2023-01-17T02:05:42.447Z,2.80
2023-01-17T02:08:13.218Z,2.60
2023-01-17T02:10:41.468Z,2.57
2023-01-17T02:13:09.592Z,2.77
2023-01-17T02:15:45.850Z,2.80
2023-01-17T02:18:43.865Z,2.80
2023-01-17T02:21:24.307Z,2.80
2023-01-17T02:24:09.772Z,2.80
2023-01-17T02:26:48.462Z,2.90
2023-01-17T02:29:43.240Z,3.27
2023-01-17T02:32:34.810Z,2.97
2023-01-17T02:35:13.647Z,2.73
2023-01-17T02:37:58.320Z,2.80
2023-01-17T02:40:34.605Z,2.93
2023-01-17T02:43:06.469Z,2.40
2023-01-17T02:45:33.060Z,2.53
2023-01-17T02:47:59.648Z,2.90
2023-01-17T02:50:50.442Z,2.63
2023-01-17T02:53:42.938Z,2.77
2023-01-17T02:56:34.311Z,2.80
2023-01-17T02:59:45.073Z,2.67
2023-01-17T03:02:28.272Z,2.50
2023-01-17T03:05:04.047Z,2.90
2023-01-17T03:07:32.038Z,2.13
2023-01-17T03:10:01.970Z,2.60
2023-01-17T03:12:32.334Z,2.77
2023-01-17T03:14:59.248Z,2.53
2023-01-17T03:17:32.447Z,2.67
2023-01-17T03:19:59.161Z,2.73
2023-01-17T03:22:25.789Z,2.77
2023-01-17T03:24:52.370Z,3.00
2023-01-17T03:27:18.953Z,2.63
2023-01-17T03:29:45.549Z,3.13
2023-01-17T03:32:12.180Z,3.27
2023-01-17T03:34:38.838Z,3.37
2023-01-17T03:37:05.558Z,3.33
2023-01-17T03:39:32.268Z,3.10
2023-01-17T03:41:58.832Z,2.67
2023-01-17T03:44:25.436Z,3.23
2023-01-17T03:46:52.030Z,3.00
2023-01-17T03:49:18.565Z,3.30
2023-01-17T03:51:45.152Z,2.50
2023-01-17T03:54:11.824Z,3.40
2023-01-17T03:56:38.392Z,2.50
2023-01-17T03:59:04.981Z,2.40
2023-01-17T04:01:31.777Z,3.10
2023-01-17T04:03:58.625Z,2.60
2023-01-17T04:06:25.309Z,2.83
2023-01-17T04:08:51.861Z,3.30
2023-01-17T04:11:18.429Z,2.90
2023-01-17T04:13:45.048Z,2.33
2023-01-17T04:18:45.009Z,2.70
2023-01-17T04:21:11.658Z,2.47
2023-01-17T04:23:38.470Z,2.63
2023-01-17T04:26:05.419Z,2.20
2023-01-17T04:28:32.137Z,2.60
2023-01-17T04:30:59.909Z,2.97
2023-01-17T04:33:26.829Z,3.37
2023-01-17T04:35:54.198Z,2.77
2023-01-17T04:38:21.667Z,2.93
2023-01-17T04:40:48.654Z,2.70
2023-01-17T04:43:16.483Z,3.13
2023-01-17T04:45:43.764Z,2.87
2023-01-17T04:48:12.569Z,2.90
2023-01-17T04:50:39.910Z,2.80
2023-01-17T04:53:07.594Z,2.47
2023-01-17T04:55:34.410Z,2.80
2023-01-17T04:58:01.091Z,2.43
2023-01-17T05:00:27.970Z,3.17
2023-01-17T05:02:54.601Z,2.83
2023-01-17T05:05:21.327Z,2.97
2023-01-17T05:07:55.526Z,2.80
2023-01-17T05:10:22.358Z,2.80
2023-01-17T05:12:56.392Z,2.67
2023-01-17T05:15:23.961Z,2.50
2023-01-17T05:17:52.331Z,2.70
2023-01-17T05:20:20.022Z,2.80
2023-01-17T05:22:55.355Z,2.90
2023-01-17T05:25:26.712Z,2.50
2023-01-17T05:27:53.703Z,2.70
2023-01-17T05:30:21.082Z,3.10
2023-01-17T05:32:52.607Z,2.90
2023-01-17T05:35:21.964Z,2.87
2023-01-17T05:37:50.330Z,2.70
2023-01-17T05:40:21.348Z,2.37
2023-01-17T05:42:49.943Z,2.57
2023-01-17T05:45:18.072Z,2.87
2023-01-17T05:47:45.604Z,2.83
2023-01-17T05:50:14.274Z,2.40
2023-01-17T05:52:41.307Z,3.23
2023-01-17T05:55:08.732Z,3.30
2023-01-17T05:57:35.352Z,2.80
2023-01-17T06:00:02.127Z,2.93
2023-01-17T06:02:32.120Z,2.50
2023-01-17T06:04:58.791Z,2.60
2023-01-17T06:07:25.409Z,3.07
2023-01-17T06:09:52.231Z,3.00
2023-01-17T06:12:19.247Z,2.50
2023-01-17T06:14:46.671Z,2.50
2023-01-17T06:17:13.263Z,2.80
2023-01-17T06:19:39.839Z,2.80
2023-01-17T06:22:06.831Z,2.97
2023-01-17T06:24:33.886Z,2.53
2023-01-17T06:27:00.796Z,2.50
2023-01-17T06:29:27.459Z,2.60
2023-01-17T06:31:54.255Z,2.40
2023-01-17T06:34:20.948Z,2.47
2023-01-17T06:36:47.545Z,2.70
2023-01-17T06:39:15.155Z,2.50
2023-01-17T06:41:42.927Z,3.00
2023-01-17T06:44:10.088Z,2.53
2023-01-17T06:46:36.773Z,2.60
2023-01-17T06:49:03.485Z,2.77
2023-01-17T06:51:30.167Z,2.63
2023-01-17T06:53:56.731Z,2.90
2023-01-17T06:56:23.440Z,2.23
2023-01-17T06:58:51.330Z,2.30
2023-01-17T07:01:18.891Z,2.97
2023-01-17T07:03:45.508Z,3.27
2023-01-17T07:06:12.314Z,2.33
2023-01-17T07:08:38.931Z,3.07
2023-01-17T07:11:10.722Z,3.13
2023-01-17T07:13:38.279Z,2.60
2023-01-17T07:16:06.584Z,2.60
2023-01-17T07:18:34.057Z,2.63
2023-01-17T07:21:01.066Z,2.60
2023-01-17T07:23:27.740Z,2.57
2023-01-17T07:25:56.627Z,2.57
2023-01-17T07:28:24.712Z,2.30
2023-01-17T07:30:51.894Z,2.37
2023-01-17T07:33:19.046Z,2.57
2023-01-17T07:35:46.260Z,2.40
2023-01-17T07:38:18.771Z,2.83
2023-01-17T07:40:46.467Z,2.53
2023-01-17T07:43:14.065Z,2.40
2023-01-17T07:45:50.691Z,2.60
2023-01-17T07:48:23.889Z,2.60
2023-01-17T07:50:57.568Z,2.80
2023-01-17T07:53:26.281Z,3.47
2023-01-17T07:55:53.081Z,2.80
2023-01-17T07:58:20.201Z,3.17
2023-01-17T08:00:46.952Z,3.30
2023-01-17T08:03:17.190Z,3.60
2023-01-17T08:05:53.497Z,3.27
2023-01-17T08:08:20.107Z,3.57
2023-01-17T08:10:47.230Z,3.03
2023-01-17T08:13:13.809Z,3.00
2023-01-17T08:15:40.554Z,3.90
2023-01-17T08:18:07.112Z,3.67
2023-01-17T08:20:33.725Z,3.10
2023-01-17T08:23:00.311Z,3.63
2023-01-17T08:25:27.370Z,3.13
2023-01-17T08:27:57.408Z,3.03
2023-01-17T08:30:24.351Z,3.33
2023-01-17T08:32:51.038Z,3.67
2023-01-17T08:35:19.800Z,3.30
2023-01-17T08:37:47.674Z,3.37
2023-01-17T08:40:18.833Z,3.07
2023-01-17T08:42:53.968Z,3.17
2023-01-17T08:45:20.589Z,2.83
2023-01-17T08:47:47.193Z,2.97
2023-01-17T08:50:13.824Z,3.90
2023-01-17T08:52:40.396Z,3.17
2023-01-17T08:55:10.019Z,3.40
2023-01-17T08:57:36.720Z,2.83
2023-01-17T09:00:03.718Z,3.37
2023-01-17T09:02:31.869Z,3.20
2023-01-17T09:05:00.387Z,3.23
2023-01-17T09:07:27.071Z,3.07
2023-01-17T09:09:53.891Z,2.67
2023-01-17T09:12:22.144Z,3.60
2023-01-17T09:14:49.094Z,3.10
2023-01-17T09:17:15.977Z,3.60
2023-01-17T09:19:47.245Z,3.30
2023-01-17T09:22:14.078Z,3.60
2023-01-17T09:24:40.723Z,3.80
2023-01-17T09:27:07.408Z,3.70
2023-01-17T09:29:34.106Z,4.27
2023-01-17T09:32:00.967Z,3.70
2023-01-17T09:34:27.969Z,3.70
2023-01-17T09:36:56.894Z,3.37
2023-01-17T09:39:23.622Z,3.20
2023-01-17T09:42:20.737Z,3.30
2023-01-17T09:44:52.354Z,3.27
2023-01-17T09:47:34.577Z,3.40
2023-01-17T09:50:32.556Z,3.23
2023-01-17T09:53:13.615Z,2.77
2023-01-17T09:55:49.030Z,3.90
2023-01-17T09:58:40.655Z,3.72
2023-01-17T10:01:07.456Z,3.03
2023-01-17T10:03:43.616Z,3.10
2023-01-17T10:06:22.152Z,5.60
2023-01-17T10:09:08.025Z,4.30
2023-01-17T10:11:46.004Z,4.60
2023-01-17T10:14:51.620Z,3.73
2023-01-17T10:17:36.267Z,4.07
2023-01-17T10:20:41.123Z,4.70
2023-01-17T10:23:31.288Z,6.53
2023-01-17T10:26:05.364Z,22.87
2023-01-17T10:28:46.698Z,13.50
2023-01-17T10:31:22.410Z,16.17
2023-01-17T10:33:54.886Z,19.37
2023-01-17T10:36:26.985Z,9.27
2023-01-17T10:38:57.535Z,9.87
2023-01-17T10:41:35.470Z,4.90
2023-01-17T10:44:39.441Z,4.87
2023-01-17T10:47:11.760Z,4.43
2023-01-17T10:49:43.498Z,4.23
2023-01-17T10:52:25.179Z,5.53
2023-01-17T10:55:12.048Z,6.07
2023-01-17T10:57:41.277Z,7.83
2023-01-17T11:00:44.104Z,5.17
2023-01-17T11:03:16.293Z,5.23
2023-01-17T11:05:43.552Z,14.47
2023-01-17T11:08:11.832Z,7.73
2023-01-17T11:10:49.045Z,13.23
2023-01-17T11:13:30.656Z,8.47
2023-01-17T11:16:07.103Z,6.87
2023-01-17T11:18:39.147Z,8.03
2023-01-17T11:21:13.295Z,6.60
2023-01-17T11:23:42.747Z,5.17
2023-01-17T11:26:20.036Z,3.77
2023-01-17T11:28:46.965Z,4.17
2023-01-17T11:31:16.448Z,4.43
2023-01-17T11:33:49.046Z,5.50
2023-01-17T11:36:17.100Z,4.37
2023-01-17T11:39:04.227Z,2.70
2023-01-17T11:41:41.482Z,3.70
2023-01-17T11:44:26.782Z,3.50
2023-01-17T11:47:11.541Z,4.57
2023-01-17T11:49:39.625Z,3.20
2023-01-17T11:52:11.370Z,3.17
2023-01-17T11:54:40.407Z,3.40
2023-01-17T11:57:20.100Z,3.63
2023-01-17T11:59:47.638Z,4.17
2023-01-17T12:02:49.906Z,3.70
2023-01-17T12:05:34.891Z,4.50
2023-01-17T12:08:13.852Z,3.87
2023-01-17T12:11:13.681Z,3.67
2023-01-17T12:14:00.403Z,3.97
2023-01-17T12:16:35.930Z,5.63
2023-01-17T12:19:27.261Z,7.40
2023-01-17T12:22:07.538Z,5.20
2023-01-17T12:24:52.707Z,5.27
2023-01-17T12:27:38.091Z,6.17
2023-01-17T12:30:30.733Z,5.47
2023-01-17T12:33:21.987Z,3.87
2023-01-17T12:35:52.759Z,3.00
2023-01-17T12:38:39.793Z,5.40
2023-01-17T12:41:20.547Z,4.20
2023-01-17T12:43:47.652Z,4.00
2023-01-17T12:46:31.819Z,3.03
2023-01-17T12:49:08.495Z,6.47
2023-01-17T12:51:39.106Z,4.17
2023-01-17T12:54:18.177Z,3.90
2023-01-17T12:56:48.037Z,3.87
2023-01-17T12:59:17.762Z,3.83
2023-01-17T13:01:57.323Z,5.20
2023-01-17T13:04:33.087Z,6.35
2023-01-17T13:07:00.008Z,5.18
2023-01-17T13:09:37.884Z,6.85
2023-01-17T13:12:08.546Z,5.93
2023-01-17T13:14:35.828Z,4.97
2023-01-17T13:17:31.539Z,4.90
2023-01-17T13:20:19.910Z,4.82
2023-01-17T13:22:47.330Z,3.50
2023-01-17T13:25:37.809Z,3.17
2023-01-17T13:28:14.439Z,3.37
2023-01-17T13:31:10.288Z,5.18
2023-01-17T13:34:02.913Z,4.47
2023-01-17T13:37:01.448Z,5.10
2023-01-17T13:40:02.021Z,6.00
2023-01-17T13:42:55.389Z,5.72
2023-01-17T13:45:26.163Z,3.80
2023-01-17T13:47:53.931Z,4.65
2023-01-17T13:50:38.605Z,4.95
2023-01-17T13:53:26.983Z,7.13
2023-01-17T13:55:59.395Z,5.43
2023-01-17T13:58:30.155Z,4.37
2023-01-17T14:00:56.892Z,3.53
2023-01-17T14:03:54.279Z,4.23
2023-01-17T14:06:33.117Z,3.00
2023-01-17T14:09:11.810Z,3.27
2023-01-17T14:12:08.864Z,4.83
2023-01-17T14:14:41.641Z,2.97
2023-01-17T14:17:48.119Z,2.70
2023-01-17T14:20:16.782Z,4.57
2023-01-17T14:22:55.907Z,4.10
2023-01-17T14:25:27.942Z,4.77
2023-01-17T14:28:00.353Z,4.13
2023-01-17T14:30:34.260Z,3.10
2023-01-17T14:33:01.128Z,3.63
2023-01-17T14:35:36.870Z,3.23
2023-01-17T14:38:16.026Z,3.20
2023-01-17T14:40:52.355Z,3.83
2023-01-17T14:43:21.753Z,2.90
2023-01-17T14:45:48.734Z,3.10
2023-01-17T14:48:21.576Z,2.90
2023-01-17T14:50:54.150Z,3.17
2023-01-17T14:53:28.668Z,3.20
2023-01-17T14:56:16.766Z,3.20
2023-01-17T14:58:46.462Z,3.73
2023-01-17T15:01:15.991Z,3.20
2023-01-17T15:03:48.879Z,3.00
2023-01-17T15:06:40.349Z,2.53
2023-01-17T15:09:12.340Z,2.37
2023-01-17T15:11:39.373Z,3.40
2023-01-17T15:14:06.902Z,2.43
2023-01-17T15:16:36.859Z,2.97
2023-01-17T15:19:11.640Z,2.90
2023-01-17T15:21:42.569Z,4.10
2023-01-17T15:24:18.910Z,3.17
2023-01-17T15:26:45.925Z,3.33
2023-01-17T15:29:19.943Z,3.53
2023-01-17T15:31:50.475Z,2.70
2023-01-17T15:34:30.369Z,2.80
2023-01-17T15:37:00.184Z,2.40
2023-01-17T15:39:32.501Z,2.40
2023-01-17T15:42:02.472Z,3.10
2023-01-17T15:44:48.152Z,2.90
2023-01-17T15:47:28.108Z,3.37
2023-01-17T15:49:55.096Z,3.37
2023-01-17T15:52:21.815Z,3.30
2023-01-17T15:54:52.684Z,2.97
2023-01-17T15:57:36.911Z,2.87
2023-01-17T16:00:20.322Z,3.20
2023-01-17T16:02:58.675Z,2.97
2023-01-17T16:05:27.465Z,3.17
2023-01-17T16:08:17.898Z,3.75
2023-01-17T16:10:44.832Z,3.85
2023-01-17T16:13:13.525Z,3.63
2023-01-17T16:15:42.875Z,4.82
2023-01-17T16:18:15.392Z,3.90
2023-01-17T16:20:53.785Z,5.55
2023-01-17T16:23:20.603Z,5.45
2023-01-17T16:25:48.200Z,4.38
2023-01-17T16:28:14.890Z,5.32
2023-01-17T16:30:41.831Z,3.57
2023-01-17T16:33:11.632Z,7.10
2023-01-17T16:35:39.968Z,5.57
2023-01-17T16:38:11.071Z,4.90
2023-01-17T16:40:44.325Z,5.53
2023-01-17T16:43:13.143Z,7.77
2023-01-17T16:45:45.839Z,4.00
2023-01-17T16:48:13.055Z,3.70
2023-01-17T16:50:53.231Z,3.63
2023-01-17T16:53:24.686Z,4.77
2023-01-17T16:55:55.572Z,4.57
2023-01-17T16:58:23.426Z,3.83
2023-01-17T17:00:50.317Z,4.50
2023-01-17T17:03:19.200Z,4.03
2023-01-17T17:05:55.249Z,4.43
2023-01-17T17:08:22.024Z,3.60
2023-01-17T17:10:48.671Z,3.27
2023-01-17T17:13:15.587Z,3.20
2023-01-17T17:15:46.254Z,3.80
2023-01-17T17:18:15.537Z,4.20
2023-01-17T17:20:43.322Z,4.10
2023-01-17T17:23:10.457Z,3.92
2023-01-17T17:25:38.219Z,4.05
2023-01-17T17:28:06.005Z,5.10
2023-01-17T17:30:33.535Z,5.07
2023-01-17T17:33:00.533Z,7.03
2023-01-17T17:35:27.132Z,6.57
2023-01-17T17:37:54.399Z,6.57
2023-01-17T17:40:21.830Z,6.30
2023-01-17T17:42:48.800Z,6.27
2023-01-17T17:45:15.767Z,4.13
2023-01-17T17:47:42.541Z,4.47
2023-01-17T17:50:09.611Z,4.17
2023-01-17T17:52:36.556Z,5.90
2023-01-17T17:55:03.539Z,3.93
2023-01-17T17:57:30.191Z,4.20
2023-01-17T17:59:59.471Z,4.10
2023-01-17T18:02:26.045Z,3.80
2023-01-17T18:04:52.761Z,4.43
2023-01-17T18:07:20.058Z,6.07
2023-01-17T18:09:47.167Z,4.93
2023-01-17T18:12:13.833Z,4.70
2023-01-17T18:14:40.675Z,6.33
2023-01-17T18:17:07.563Z,4.18
2023-01-17T18:19:34.326Z,4.67
2023-01-17T18:22:03.347Z,4.45
2023-01-17T18:24:30.269Z,3.93
2023-01-17T18:26:57.957Z,4.45
2023-01-17T18:29:26.827Z,4.20
2023-01-17T18:31:54.734Z,4.70
2023-01-17T18:34:26.903Z,4.25
2023-01-17T18:36:54.132Z,3.88
2023-01-17T18:39:26.645Z,4.75
2023-01-17T18:41:54.524Z,7.03
2023-01-17T18:44:22.473Z,5.23
2023-01-17T18:46:54.266Z,4.90
2023-01-17T18:49:21.133Z,4.63
2023-01-17T18:51:51.883Z,5.68
2023-01-17T18:54:20.304Z,4.72
2023-01-17T18:56:48.030Z,5.30
2023-01-17T18:59:21.436Z,4.70
2023-01-17T19:01:48.301Z,5.00
2023-01-17T19:04:17.176Z,5.43
2023-01-17T19:06:47.004Z,7.60
2023-01-17T19:09:15.465Z,7.87
2023-01-17T19:11:46.150Z,6.87
2023-01-17T19:14:13.225Z,5.40
2023-01-17T19:16:41.464Z,6.72
2023-01-17T19:19:11.434Z,4.90
2023-01-17T19:21:38.389Z,5.00
2023-01-17T19:24:06.147Z,5.17
2023-01-17T19:26:33.234Z,4.80
2023-01-17T19:29:00.235Z,4.77
2023-01-17T19:31:29.285Z,4.97
2023-01-17T19:33:57.980Z,4.05
2023-01-17T19:36:27.800Z,3.70
2023-01-17T19:39:04.489Z,3.85
2023-01-17T19:41:38.277Z,4.07
2023-01-17T19:44:08.234Z,4.23
2023-01-17T19:46:36.316Z,3.90
2023-01-17T19:49:07.114Z,4.65
2023-01-17T19:51:34.360Z,4.27
2023-01-17T19:54:01.774Z,3.73
2023-01-17T19:56:29.817Z,4.30
2023-01-17T19:59:01.790Z,4.60
2023-01-17T20:01:31.617Z,4.73
2023-01-17T20:03:59.239Z,4.37
2023-01-17T20:06:28.746Z,4.07
2023-01-17T20:08:56.517Z,4.50
2023-01-17T20:11:25.051Z,4.27
2023-01-17T20:13:55.009Z,4.10
2023-01-17T20:16:23.696Z,4.47
2023-01-17T20:18:51.002Z,4.57
2023-01-17T20:21:21.106Z,4.57
2023-01-17T20:23:49.978Z,3.77
2023-01-17T20:26:29.603Z,4.87
2023-01-17T20:28:56.483Z,3.73
2023-01-17T20:31:25.265Z,3.30
2023-01-17T20:33:56.134Z,4.10
2023-01-17T20:36:28.915Z,4.93
2023-01-17T20:38:57.045Z,4.23
2023-01-17T20:41:28.712Z,4.53
2023-01-17T20:43:57.629Z,4.80
2023-01-17T20:46:31.222Z,5.53
2023-01-17T20:48:58.316Z,4.00
2023-01-17T20:51:26.975Z,4.23
2023-01-17T20:53:59.796Z,3.93
2023-01-17T20:56:27.607Z,5.30
2023-01-17T20:58:55.110Z,4.87
2023-01-17T21:01:23.062Z,4.70
2023-01-17T21:03:53.093Z,5.07
2023-01-17T21:06:22.118Z,6.17
2023-01-17T21:08:49.249Z,5.07
2023-01-17T21:11:18.652Z,5.65
2023-01-17T21:13:45.669Z,6.07
2023-01-17T21:16:14.261Z,4.80
2023-01-17T21:18:41.091Z,5.03
2023-01-17T21:21:14.481Z,4.00
2023-01-17T21:23:42.642Z,5.38
2023-01-17T21:26:15.273Z,5.38
2023-01-17T21:28:44.467Z,5.20
2023-01-17T21:31:31.111Z,4.90
2023-01-17T21:34:00.968Z,5.15
2023-01-17T21:36:31.035Z,4.93
2023-01-17T21:38:59.127Z,5.60
2023-01-17T21:41:28.682Z,5.13
2023-01-17T21:43:57.749Z,5.33
2023-01-17T21:46:25.464Z,4.50
2023-01-17T21:48:52.440Z,4.50
2023-01-17T21:51:21.630Z,5.22
2023-01-17T21:53:48.529Z,4.70
2023-01-17T21:56:34.054Z,5.00
2023-01-17T21:59:00.837Z,4.80
2023-01-17T22:01:30.308Z,4.77
2023-01-17T22:04:02.919Z,5.00
2023-01-17T22:06:32.088Z,5.57
2023-01-17T22:08:59.217Z,7.07
2023-01-17T22:11:27.351Z,7.55
2023-01-17T22:13:53.956Z,5.97
2023-01-17T22:16:25.897Z,5.07
2023-01-17T22:18:52.876Z,6.07
2023-01-17T22:21:28.213Z,10.60
2023-01-17T22:23:58.258Z,5.40
2023-01-17T22:26:31.208Z,5.73
2023-01-17T22:29:02.283Z,5.97
2023-01-17T22:31:29.600Z,7.47
2023-01-17T22:33:58.948Z,7.28
2023-01-17T22:36:26.488Z,7.82
2023-01-17T22:38:53.328Z,5.33
2023-01-17T22:41:25.711Z,9.37
2023-01-17T22:43:54.416Z,5.47
2023-01-17T22:46:24.850Z,5.00
2023-01-17T22:48:53.054Z,5.33
2023-01-17T22:51:20.953Z,5.60
2023-01-17T22:53:56.558Z,5.53
2023-01-17T22:56:26.571Z,6.10
2023-01-17T22:58:53.648Z,5.53
2023-01-17T23:01:23.862Z,5.47
2023-01-17T23:03:56.321Z,6.00
2023-01-17T23:06:27.204Z,5.30
2023-01-17T23:08:57.821Z,4.90
2023-01-17T23:11:40.711Z,6.28
2023-01-17T23:14:24.053Z,5.80
2023-01-17T23:17:10.507Z,7.50
2023-01-17T23:19:47.786Z,5.33
2023-01-17T23:22:19.600Z,5.50
2023-01-17T23:24:52.558Z,4.83
2023-01-17T23:27:45.614Z,6.05
2023-01-17T23:30:12.401Z,6.18
2023-01-17T23:32:43.139Z,5.47
2023-01-17T23:35:10.049Z,5.10
2023-01-17T23:37:55.203Z,5.10
2023-01-17T23:40:22.399Z,5.80
2023-01-17T23:43:07.666Z,5.73
2023-01-17T23:45:37.968Z,5.90
2023-01-17T23:48:09.369Z,5.65
2023-01-17T23:50:41.192Z,6.03
2023-01-17T23:53:08.627Z,5.97
2023-01-17T23:55:37.450Z,6.35
2023-01-17T23:58:09.483Z,5.43
